If you wish to contribute or participate in the discussions about articles you are invited to join SKYbrary as a registered user

 Actions

Inverness Airport

From SKYbrary Wiki

EGPE
Airport
ICAO: EGPE – IATA: INV
Summary
Name Inverness Airport
Region Europe
Territory United Kingdom GB.gif
Location Dalcross, Scotland
Serving Inverness
Elevation 9.144 m <br />30 ft9.144 m <br />
Coordinates 57° 32' 33.00" N, 4° 2' 51.00" W
Runways
Designator Length Width Surface ROPS
5/23 1887 m6,190.945 ft <br /> 46 m150.919 ft <br /> ASP yes/yes
12/30 700 m2,296.588 ft <br /> 18 m59.055 ft <br /> ASP yes/yes


METAR
Observation EGPE 110420Z AUTO 22005KT 9999 NCD M04/M06 Q1020
Station Inverness / Dalcross
Date/Time 11 April 2021 04:20:00
Wind direction 220°
Wind speed 05 kts
Lowest cloud amount no clouds detected
Temperature
Dew point
Humidity 85%
QNH 1020 hPa
Weather condition n/a

Inverness Airport

ICAO: EGPE IATA: INV

Description

Small regional airport serving Inverness and the Central Highlands of Scotland.

Climatology

Temperate Marine climate/Oceanic climate (Köppen climate classification Cfb). Moderately cool summer and comparatively warm winter with a temperature range of only 14°C57.2 °F <br />287.15 K <br />516.87 °R <br />. Prevailing south-westerly winds from the Atlantic Ocean.

Maps

Terrain

Loading map...

Airport Layout

Loading map...


Accidents & Serious Incidents at or in vicinity of EGPE

None on SKYbrary